This is the latest recevied weather packets stored in our database for station/object KP4FJC. If no packets are shown the sender has not sent any weather packets the latest 10 day(s).
| Time | Temp. | Humidity | Pressure | Rain* | Wind** | Luminosity | Snow |
|---|---|---|---|---|---|---|---|
| 1777235901 | 29.44° C | 76% | 1013.4 hPa | 0 mm | - | 115 W/m² | - |
| 1777235599 | 30° C | 77% | 1013.3 hPa | 0 mm | - | 132 W/m² | - |
| 1777235295 | 30.56° C | 73% | 1013.4 hPa | 0 mm | - | 149 W/m² | - |
| 1777234992 | 30.56° C | 73% | 1013.1 hPa | 0 mm | - | 417 W/m² | - |
| 1777234688 | 30.56° C | 73% | 1013.1 hPa | 0 mm | - | 458 W/m² | - |
| 1777234383 | 30.56° C | 73% | 1013.2 hPa | 0 mm | - | 442 W/m² | - |
| 1777234079 | 30.56° C | 73% | 1013.1 hPa | 0 mm | - | 466 W/m² | - |
| 1777233775 | 31.11° C | 72% | 1012.9 hPa | 0 mm | - | 485 W/m² | - |
| 1777233472 | 30.56° C | 74% | 1013 hPa | 0 mm | - | 502 W/m² | - |
| 1777233171 | 30.56° C | 74% | 1013.1 hPa | 0 mm | - | 504 W/m² | - |
| 1777232866 | 31.11° C | 71% | 1013.2 hPa | 0 mm | - | 556 W/m² | - |
| 1777232565 | 30.56° C | 73% | 1013.2 hPa | 0 mm | - | 666 W/m² | - |
| 1777232264 | 30.56° C | 72% | 1012.9 hPa | 0 mm | - | 282 W/m² | - |
| 1777231958 | 31.11° C | 71% | 1013 hPa | 0 mm | - | 210 W/m² | - |
| 1777231656 | 32.22° C | 68% | 1012.9 hPa | 0 mm | - | 239 W/m² | - |
| 1777231353 | 31.67° C | 70% | 1013.1 hPa | 0 mm | - | 696 W/m² | - |
| 1777231048 | 32.78° C | 65% | 1013.2 hPa | 0 mm | - | 733 W/m² | - |
| 1777230744 | 32.22° C | 65% | 1013.1 hPa | 0 mm | - | 737 W/m² | - |
| 1777230439 | 32.22° C | 66% | 1013 hPa | 0 mm | - | 772 W/m² | - |
| 1777230136 | 32.22° C | 65% | 1013 hPa | 0 mm | - | 790 W/m² | - |
| 1777229832 | 32.22° C | 67% | 1013.1 hPa | 0 mm | - | 836 W/m² | - |
| 1777229524 | 31.67° C | 68% | 1013.1 hPa | 0 mm | - | 842 W/m² | - |
| 1777229221 | 32.22° C | 68% | 1012.9 hPa | 0 mm | - | 427 W/m² | - |
| 1777228917 | 32.78° C | 64% | 1013.1 hPa | 0 mm | - | 859 W/m² | - |
| 1777228613 | 32.78° C | 65% | 1013.4 hPa | 0 mm | - | 836 W/m² | - |
* Rain latest hour (hover to see other rain measurements)
** Current wind speed in m/s (hover to see current wind gust speed)